Time;durP1;ratioP1;P1;durP2;ratioP2;P2;SDS_P1;SDS_P2;PMS_P1;PMS_P2;Temp;Humidity;BMP_temperature;BMP_pressure;BME280_temperature;BME280_humidity;BME280_pressure;Samples;Min_cycle;Max_cycle;Signal;HPM_P1;HPM_P2
2023/07/26 00:01:07;;;;;;;6.43;3.50;;;;;;;21.53;58.42;101334.06;5053091;28;20064;-42
2023/07/26 00:03:34;;;;;;;11.27;3.33;;;;;;;21.91;59.11;101339.38;5050418;28;20546;-43
2023/07/26 00:06:01;;;;;;;8.70;3.58;;;;;;;21.84;59.05;101328.72;5032586;28;20060;-43
2023/07/26 00:08:27;;;;;;;13.05;3.40;;;;;;;21.74;58.28;101331.41;5035715;28;20387;-43
2023/07/26 00:10:53;;;;;;;11.40;3.33;;;;;;;21.55;58.96;101326.47;5047360;28;20383;-44
2023/07/26 00:13:19;;;;;;;13.48;3.17;;;;;;;21.38;59.43;101325.03;5052707;28;20029;-43
2023/07/26 00:15:46;;;;;;;8.27;3.30;;;;;;;21.25;60.96;101329.03;5052082;28;20055;-45
2023/07/26 00:18:12;;;;;;;10.23;4.63;;;;;;;21.29;60.15;101324.69;5050596;28;20021;-44
2023/07/26 00:20:38;;;;;;;7.43;3.42;;;;;;;21.20;61.29;101320.84;5052464;28;20032;-42
2023/07/26 00:23:05;;;;;;;9.88;3.67;;;;;;;21.02;61.38;101308.50;5036898;28;20057;-41
2023/07/26 00:25:31;;;;;;;11.02;3.60;;;;;;;21.11;62.01;101314.28;5035595;28;20029;-45
2023/07/26 00:27:57;;;;;;;11.13;3.97;;;;;;;21.25;61.21;101324.41;5051729;28;20031;-44
2023/07/26 00:30:24;;;;;;;8.73;3.40;;;;;;;20.93;62.02;101318.25;5052253;28;20394;-46
2023/07/26 00:32:50;;;;;;;15.10;4.13;;;;;;;20.90;62.02;101316.88;5052700;28;20032;-45
2023/07/26 00:35:21;;;;;;;10.60;4.43;;;;;;;20.91;62.83;101320.41;5052103;28;20378;-45
2023/07/26 00:37:48;;;;;;;9.18;3.50;;;;;;;20.55;63.16;101317.47;5051229;28;20087;-49
2023/07/26 00:40:14;;;;;;;7.57;3.38;;;;;;;20.76;63.33;101313.78;5050116;28;20075;-46
2023/07/26 00:42:41;;;;;;;10.32;3.47;;;;;;;20.65;63.25;101322.97;5049664;28;20028;-42
2023/07/26 00:45:07;;;;;;;10.95;3.78;;;;;;;20.33;63.93;101305.84;5049968;28;20518;-42
2023/07/26 00:47:34;;;;;;;6.20;3.03;;;;;;;20.30;65.55;101302.56;5052286;28;20028;-45
2023/07/26 00:50:00;;;;;;;12.40;3.00;;;;;;;20.50;64.45;101290.25;5051638;28;20052;-44
2023/07/26 00:52:27;;;;;;;5.85;3.17;;;;;;;20.27;65.05;101303.09;5051885;28;20033;-43
2023/07/26 00:54:56;;;;;;;6.60;2.50;;;;;;;20.10;65.35;101316.00;5050780;28;20104;-43
2023/07/26 00:57:23;;;;;;;6.90;2.70;;;;;;;20.49;64.85;101308.47;5052277;28;20036;-44
2023/07/26 00:59:49;;;;;;;6.45;2.47;;;;;;;20.64;64.16;101296.84;5033972;28;20025;-46
2023/07/26 01:02:16;;;;;;;7.85;2.45;;;;;;;20.22;65.82;101308.47;5038288;28;20025;-42
2023/07/26 01:04:43;;;;;;;5.88;2.30;;;;;;;19.93;66.23;101290.81;5051693;28;20471;-44
2023/07/26 01:07:21;;;;;;;6.30;2.70;;;;;;;20.03;66.43;101282.75;5048940;28;20382;-47
2023/07/26 01:10:14;;;;;;;8.40;3.30;;;;;;;19.82;66.86;101287.16;5051116;28;20086;-42
2023/07/26 01:12:51;;;;;;;6.68;2.83;;;;;;;19.87;67.00;101283.69;5051678;28;20040;-42
2023/07/26 01:15:18;;;;;;;3.75;2.30;;;;;;;19.53;68.26;101278.41;5050628;28;20163;-41
2023/07/26 01:17:45;;;;;;;4.72;2.90;;;;;;;19.58;67.99;101285.81;5049772;28;20035;-45
2023/07/26 01:20:12;;;;;;;8.55;2.85;;;;;;;19.06;69.50;101278.97;5051278;28;20081;-45
2023/07/26 01:22:38;;;;;;;5.38;2.55;;;;;;;19.28;68.91;101287.09;5051735;28;20113;-44
2023/07/26 01:25:05;;;;;;;8.80;2.72;;;;;;;19.25;69.42;101282.16;5031735;28;20040;-43
2023/07/26 01:27:31;;;;;;;7.07;2.35;;;;;;;19.22;69.22;101288.94;5051616;28;20025;-41
2023/07/26 01:30:01;;;;;;;3.15;2.20;;;;;;;18.85;70.12;101287.91;5051249;28;20036;-42
2023/07/26 01:32:31;;;;;;;7.55;2.67;;;;;;;18.97;70.08;101283.16;5051503;28;20057;-43
2023/07/26 01:34:58;;;;;;;6.18;2.85;;;;;;;19.18;69.94;101289.69;5051330;28;20024;-41
2023/07/26 01:37:25;;;;;;;7.03;2.70;;;;;;;19.19;69.83;101300.28;5035763;28;20116;-41
2023/07/26 01:39:52;;;;;;;6.03;2.75;;;;;;;19.28;69.19;101297.16;5031275;28;20025;-43
2023/07/26 01:42:19;;;;;;;9.48;2.80;;;;;;;19.23;69.00;101290.56;5031184;28;20053;-42
2023/07/26 01:44:46;;;;;;;4.38;1.95;;;;;;;19.32;68.96;101296.41;5031914;28;20025;-43
2023/07/26 01:47:12;;;;;;;7.60;3.13;;;;;;;19.10;69.85;101287.41;5031780;28;20431;-45
2023/07/26 01:49:38;;;;;;;4.20;2.55;;;;;;;18.88;70.72;101290.13;5031924;28;20057;-44
2023/07/26 01:52:05;;;;;;;7.55;2.95;;;;;;;18.67;70.74;101278.97;5039057;28;20685;-45
2023/07/26 01:54:31;;;;;;;7.07;2.65;;;;;;;18.80;70.61;101280.50;5051135;28;20032;-45
2023/07/26 01:56:57;;;;;;;7.45;2.60;;;;;;;18.77;71.10;101275.59;5032169;28;20035;-43
2023/07/26 01:59:24;;;;;;;6.82;2.50;;;;;;;18.98;70.52;101272.06;5014150;28;20393;-45
2023/07/26 02:01:50;;;;;;;7.28;2.72;;;;;;;19.21;69.87;101275.59;5031416;28;20468;-44
2023/07/26 02:04:16;;;;;;;8.20;3.00;;;;;;;19.09;69.21;101269.47;5035426;28;20056;-44
2023/07/26 02:06:43;;;;;;;7.53;2.40;;;;;;;19.07;69.60;101269.75;5035334;28;20025;-44
2023/07/26 02:09:09;;;;;;;5.85;2.42;;;;;;;19.10;69.78;101280.09;5040900;28;20021;-43
2023/07/26 02:11:35;;;;;;;4.90;2.20;;;;;;;19.11;69.30;101276.31;5034719;28;20479;-42
2023/07/26 02:14:02;;;;;;;5.35;2.72;;;;;;;19.57;68.01;101279.56;5034637;28;20018;-43
2023/07/26 02:16:28;;;;;;;8.13;2.42;;;;;;;19.56;67.15;101275.22;5032311;28;20491;-44
2023/07/26 02:18:54;;;;;;;5.97;2.17;;;;;;;19.84;66.37;101284.22;5035079;28;20033;-43
2023/07/26 02:21:21;;;;;;;5.80;2.20;;;;;;;19.48;67.14;101283.78;5034777;28;20105;-43
2023/07/26 02:23:47;;;;;;;10.98;3.30;;;;;;;19.97;65.06;101279.16;5034869;28;20045;-45
2023/07/26 02:26:13;;;;;;;9.93;2.75;;;;;;;19.69;65.71;101272.09;5034517;28;20021;-44
2023/07/26 02:28:40;;;;;;;8.07;2.78;;;;;;;20.12;64.64;101259.47;5034326;28;20104;-44
2023/07/26 02:31:06;;;;;;;4.88;2.40;;;;;;;19.74;65.50;101258.59;5034218;28;20036;-43
2023/07/26 02:33:33;;;;;;;10.05;3.20;;;;;;;19.59;66.04;101266.56;5033325;28;20048;-44
2023/07/26 02:36:00;;;;;;;6.72;2.42;;;;;;;19.92;65.20;101265.53;5034510;28;20029;-43
2023/07/26 02:38:26;;;;;;;4.32;2.33;;;;;;;19.71;66.40;101263.69;5034719;28;20032;-44
2023/07/26 02:40:53;;;;;;;7.22;2.70;;;;;;;19.41;67.01;101273.13;5034259;28;20033;-44
2023/07/26 02:43:19;;;;;;;8.95;3.28;;;;;;;19.64;66.70;101277.50;5034471;28;20057;-45
2023/07/26 02:45:45;;;;;;;8.93;2.55;;;;;;;19.45;66.69;101270.75;5034426;28;20491;-43
2023/07/26 02:48:11;;;;;;;6.70;2.35;;;;;;;19.39;67.24;101282.63;5034637;28;20111;-46
2023/07/26 02:50:38;;;;;;;7.63;3.15;;;;;;;18.96;69.14;101270.69;5034183;28;20063;-44
2023/07/26 02:53:04;;;;;;;9.57;2.78;;;;;;;18.88;69.79;101271.94;5034380;28;20036;-44
2023/07/26 02:55:30;;;;;;;8.82;2.80;;;;;;;18.48;71.26;101272.13;5034403;28;20075;-44
2023/07/26 02:57:56;;;;;;;7.20;2.92;;;;;;;18.19;72.79;101269.53;5034387;28;20031;-43
2023/07/26 03:00:23;;;;;;;9.23;3.05;;;;;;;17.86;74.44;101273.03;5034032;28;20057;-44
2023/07/26 03:02:49;;;;;;;7.78;2.83;;;;;;;17.89;74.47;101264.41;5034531;28;20030;-45
2023/07/26 03:05:15;;;;;;;13.32;4.03;;;;;;;17.60;75.89;101277.13;5020864;28;20079;-44
2023/07/26 03:07:42;;;;;;;13.10;3.97;;;;;;;17.44;76.61;101280.63;5014392;28;20116;-44
2023/07/26 03:10:09;;;;;;;9.50;4.03;;;;;;;17.14;78.34;101268.09;5013957;28;20060;-44
2023/07/26 03:12:35;;;;;;;9.15;3.67;;;;;;;17.03;78.61;101278.94;5014012;28;20053;-43
2023/07/26 03:15:01;;;;;;;10.50;3.78;;;;;;;17.03;79.33;101268.94;5015058;28;20053;-44
2023/07/26 03:17:27;;;;;;;13.40;4.57;;;;;;;16.91;79.68;101265.44;5053687;28;20495;-43
2023/07/26 03:19:53;;;;;;;11.43;4.32;;;;;;;16.75;80.89;101261.56;5053618;28;20166;-42
2023/07/26 03:22:20;;;;;;;11.07;4.38;;;;;;;16.88;79.90;101263.22;5053649;28;20059;-45
2023/07/26 03:24:46;;;;;;;11.10;3.80;;;;;;;16.88;80.24;101268.63;5049872;28;20086;-43
2023/07/26 03:27:12;;;;;;;13.40;4.32;;;;;;;16.77;80.49;101264.88;5038003;28;20066;-44
2023/07/26 03:29:38;;;;;;;12.63;4.82;;;;;;;16.56;81.55;101268.97;5049512;28;20033;-44
2023/07/26 03:32:05;;;;;;;12.88;4.72;;;;;;;16.61;81.76;101279.06;5052534;28;20017;-44
2023/07/26 03:34:31;;;;;;;11.85;5.00;;;;;;;16.33;82.46;101275.19;5053248;28;20538;-44
2023/07/26 03:36:58;;;;;;;11.25;4.10;;;;;;;16.23;83.11;101272.25;5053530;28;20083;-45
2023/07/26 03:39:24;;;;;;;16.85;5.18;;;;;;;16.21;83.44;101274.34;5053566;28;20360;-46
2023/07/26 03:41:51;;;;;;;18.98;5.10;;;;;;;16.22;83.20;101273.28;5052285;28;20475;-44
2023/07/26 03:44:17;;;;;;;12.70;4.40;;;;;;;16.42;82.32;101278.34;5053281;28;20036;-45
2023/07/26 03:46:43;;;;;;;16.13;5.07;;;;;;;16.40;82.40;101283.19;5052986;28;20033;-46
2023/07/26 03:49:09;;;;;;;13.80;4.15;;;;;;;16.46;82.30;101276.00;5053336;28;20037;-44
2023/07/26 03:51:36;;;;;;;16.35;4.53;;;;;;;16.53;81.42;101276.72;5052936;28;20025;-44
2023/07/26 03:54:02;;;;;;;13.55;4.63;;;;;;;16.54;81.36;101281.88;5052315;28;20042;-45
2023/07/26 03:56:28;;;;;;;14.98;4.88;;;;;;;16.53;81.73;101274.84;5053069;28;20040;-44
2023/07/26 03:58:55;;;;;;;17.50;4.50;;;;;;;16.43;82.40;101277.28;5052947;28;20025;-44
2023/07/26 04:01:21;;;;;;;16.10;5.00;;;;;;;16.42;82.51;101278.34;5052813;28;20491;-44
2023/07/26 04:03:48;;;;;;;15.15;4.93;;;;;;;16.42;82.32;101278.34;5051568;28;20094;-44
2023/07/26 04:06:14;;;;;;;16.80;4.25;;;;;;;16.41;82.19;101276.72;5032793;28;20087;-44
2023/07/26 04:08:41;;;;;;;11.90;5.07;;;;;;;16.47;81.85;101285.75;5045604;28;20028;-44
2023/07/26 04:11:07;;;;;;;17.40;5.10;;;;;;;16.49;81.42;101284.47;5052199;28;20776;-45
2023/07/26 04:13:34;;;;;;;14.35;5.05;;;;;;;16.26;81.99;101277.16;5052254;28;20021;-45
2023/07/26 04:16:01;;;;;;;16.00;4.93;;;;;;;16.45;81.15;101282.47;5052015;28;20060;-43
2023/07/26 04:18:27;;;;;;;14.45;4.70;;;;;;;16.47;80.77;101285.75;5052735;28;20021;-42
2023/07/26 04:20:54;;;;;;;10.73;4.93;;;;;;;16.42;81.01;101277.53;5052412;28;20505;-45
2023/07/26 04:23:20;;;;;;;11.38;4.07;;;;;;;16.47;80.86;101280.34;5052459;28;20040;-44
2023/07/26 04:25:50;;;;;;;13.77;4.85;;;;;;;16.51;80.61;101279.66;5052090;28;20049;-44
2023/07/26 04:28:17;;;;;;;11.07;4.80;;;;;;;16.47;80.80;101286.59;5052454;28;20102;-44
2023/07/26 04:30:44;;;;;;;19.45;5.07;;;;;;;16.53;80.71;101291.03;5052078;28;20055;-45
2023/07/26 04:33:10;;;;;;;12.10;4.03;;;;;;;16.54;80.71;101287.28;5050892;28;20111;-43
2023/07/26 04:35:37;;;;;;;13.02;4.47;;;;;;;16.43;81.57;101290.81;5052549;28;20529;-43
2023/07/26 04:38:03;;;;;;;12.43;4.85;;;;;;;16.47;81.06;101289.28;5051986;28;20108;-43
2023/07/26 04:40:29;;;;;;;13.25;4.53;;;;;;;16.47;80.78;101291.16;5050824;28;20017;-45
2023/07/26 04:42:55;;;;;;;14.23;5.05;;;;;;;16.59;80.12;101292.81;5052215;28;20129;-44
2023/07/26 04:45:22;;;;;;;14.75;5.03;;;;;;;16.45;81.17;101290.59;5051915;28;20732;-46
2023/07/26 04:47:48;;;;;;;12.10;4.70;;;;;;;16.53;80.44;101292.94;5052065;28;20059;-44
2023/07/26 04:50:14;;;;;;;14.15;4.65;;;;;;;16.44;80.62;101295.16;5051789;28;20044;-46
2023/07/26 04:52:40;;;;;;;12.63;4.40;;;;;;;16.48;79.97;101296.31;5051971;28;20032;-45
2023/07/26 04:55:07;;;;;;;12.30;4.35;;;;;;;16.40;80.34;101299.38;5049875;28;20498;-45
2023/07/26 04:57:33;;;;;;;14.80;4.72;;;;;;;16.50;79.73;101299.63;5050529;28;20475;-45
2023/07/26 05:00:00;;;;;;;13.55;4.50;;;;;;;16.46;80.10;101292.22;5051446;28;20032;-44
2023/07/26 05:02:26;;;;;;;11.20;3.95;;;;;;;16.52;80.04;101294.00;5051892;28;20028;-45
2023/07/26 05:04:52;;;;;;;11.68;4.45;;;;;;;16.60;80.15;101296.31;5041444;28;20052;-43
2023/07/26 05:07:18;;;;;;;13.43;4.35;;;;;;;16.46;80.96;101298.44;5031961;28;20029;-44
2023/07/26 05:09:45;;;;;;;15.35;4.47;;;;;;;16.51;81.06;101301.28;5031535;28;20021;-44
2023/07/26 05:12:11;;;;;;;18.90;4.85;;;;;;;16.54;81.37;101295.38;5031643;28;20033;-46
2023/07/26 05:14:41;;;;;;;16.38;5.15;;;;;;;16.60;81.35;101299.88;5031518;28;20026;-44
2023/07/26 05:17:07;;;;;;;16.02;5.13;;;;;;;16.59;82.10;101303.63;5031675;28;20046;-46
2023/07/26 05:19:33;;;;;;;15.57;4.63;;;;;;;16.50;82.64;101305.03;5031441;28;20411;-46
2023/07/26 05:22:00;;;;;;;12.45;4.32;;;;;;;16.56;82.01;101297.88;5031447;28;20419;-46
2023/07/26 05:24:26;;;;;;;13.93;4.88;;;;;;;16.35;82.88;101294.69;5038397;28;20083;-46
2023/07/26 05:26:52;;;;;;;19.77;5.40;;;;;;;16.26;83.28;101296.06;5051530;28;20599;-45
2023/07/26 05:29:18;;;;;;;14.15;4.32;;;;;;;16.44;82.10;101297.88;5048591;28;20033;-44
2023/07/26 05:31:45;;;;;;;21.17;5.45;;;;;;;16.45;81.65;101296.00;5051471;28;20065;-46
2023/07/26 05:34:11;;;;;;;15.30;5.45;;;;;;;16.46;81.44;101301.16;5051241;28;20049;-43
2023/07/26 05:36:37;;;;;;;15.68;5.30;;;;;;;16.36;81.73;101309.81;5050819;28;20025;-43
2023/07/26 05:39:04;;;;;;;14.50;4.55;;;;;;;16.45;81.33;101306.81;5051354;28;20526;-44
2023/07/26 05:41:31;;;;;;;13.55;4.53;;;;;;;16.46;81.18;101297.63;5051116;28;20376;-44
2023/07/26 05:44:01;;;;;;;11.60;4.40;;;;;;;16.47;80.99;101305.50;5051333;28;20032;-43
2023/07/26 05:46:27;;;;;;;18.65;4.95;;;;;;;16.36;81.24;101299.03;5051336;28;20134;-46
2023/07/26 05:48:53;;;;;;;14.20;4.65;;;;;;;16.31;81.40;101307.00;5051150;28;20029;-45
2023/07/26 05:51:19;;;;;;;19.33;5.68;;;;;;;16.26;81.40;101303.34;5050962;28;20426;-44
2023/07/26 05:53:45;;;;;;;16.65;5.35;;;;;;;16.22;82.16;101303.00;5051386;28;20082;-44
2023/07/26 05:56:14;;;;;;;15.52;4.88;;;;;;;16.23;81.87;101301.13;5051330;28;20024;-43
2023/07/26 05:58:40;;;;;;;20.90;5.45;;;;;;;16.33;81.52;101304.09;5051215;28;20490;-43
2023/07/26 06:01:06;;;;;;;14.75;5.25;;;;;;;16.29;81.68;101303.72;5050726;28;20037;-44
2023/07/26 06:03:35;;;;;;;17.40;5.57;;;;;;;16.22;82.49;101302.19;5051200;28;20031;-44
2023/07/26 06:06:02;;;;;;;14.40;4.80;;;;;;;16.26;82.11;101311.44;5031197;28;20456;-44
2023/07/26 06:08:28;;;;;;;20.90;4.72;;;;;;;16.06;82.82;101307.19;5031268;28;20025;-43
2023/07/26 06:10:54;;;;;;;19.40;4.82;;;;;;;16.16;82.25;101309.34;5030622;28;20116;-44
2023/07/26 06:13:21;;;;;;;15.50;4.88;;;;;;;16.13;82.03;101304.38;5031123;28;20021;-44
2023/07/26 06:15:47;;;;;;;14.23;5.30;;;;;;;16.00;82.17;101304.59;5030702;28;20046;-48
2023/07/26 06:18:13;;;;;;;18.10;5.78;;;;;;;15.95;82.18;101313.38;5031229;28;20040;-44
2023/07/26 06:20:39;;;;;;;13.30;4.45;;;;;;;15.95;81.88;101302.59;5030987;28;20096;-43
2023/07/26 06:23:06;;;;;;;18.02;5.05;;;;;;;16.00;81.90;101305.41;5031112;28;20538;-44
2023/07/26 06:25:33;;;;;;;17.65;4.75;;;;;;;15.95;81.92;101307.97;5031012;28;20073;-44
2023/07/26 06:27:59;;;;;;;19.10;4.70;;;;;;;15.89;82.40;101300.81;5031133;28;20048;-44
2023/07/26 06:30:25;;;;;;;16.25;5.70;;;;;;;15.79;83.04;101303.22;5030607;28;20451;-44
2023/07/26 06:32:52;;;;;;;15.95;5.03;;;;;;;15.88;83.08;101312.66;5031001;28;20410;-43
2023/07/26 06:35:18;;;;;;;17.83;4.72;;;;;;;15.91;82.79;101300.56;5030852;28;20105;-44
2023/07/26 06:37:44;;;;;;;17.60;5.63;;;;;;;15.95;82.84;101296.38;5031049;28;20076;-44
2023/07/26 06:40:11;;;;;;;13.65;4.50;;;;;;;15.91;83.18;101295.16;5030812;28;20053;-45
2023/07/26 06:42:37;;;;;;;17.83;5.25;;;;;;;15.86;83.24;101297.72;5032836;28;20561;-43
2023/07/26 06:45:04;;;;;;;22.55;5.65;;;;;;;15.74;83.86;101295.81;5050887;28;20024;-44
2023/07/26 06:47:30;;;;;;;17.77;5.32;;;;;;;15.87;83.52;101285.88;5050762;28;20071;-43
2023/07/26 06:49:56;;;;;;;13.27;5.00;;;;;;;15.77;84.08;101297.25;5053627;28;20072;-42
2023/07/26 06:52:22;;;;;;;18.98;4.93;;;;;;;15.93;83.20;101288.47;5054434;28;20025;-43
2023/07/26 06:54:49;;;;;;;16.42;5.38;;;;;;;15.94;83.31;101290.16;5054342;28;20025;-44
2023/07/26 06:57:15;;;;;;;17.98;5.35;;;;;;;15.91;83.19;101287.06;5054336;28;20028;-43
2023/07/26 06:59:41;;;;;;;18.35;5.13;;;;;;;15.92;83.67;101296.81;5053969;28;20386;-42
2023/07/26 07:02:07;;;;;;;22.00;5.57;;;;;;;15.85;84.20;101296.91;5054058;28;20077;-45
2023/07/26 07:04:35;;;;;;;11.85;5.20;;;;;;;15.77;84.45;101299.94;5045973;28;20025;-44
2023/07/26 07:07:01;;;;;;;20.23;5.57;;;;;;;15.88;84.05;101296.47;5034118;28;20032;-44
2023/07/26 07:09:27;;;;;;;11.88;5.28;;;;;;;15.90;83.83;101302.44;5038546;28;20021;-43
2023/07/26 07:11:53;;;;;;;15.38;5.25;;;;;;;15.88;83.86;101307.28;5053660;28;20033;-44
2023/07/26 07:14:20;;;;;;;13.57;4.78;;;;;;;15.81;84.10;101301.94;5053804;28;20071;-44
2023/07/26 07:16:46;;;;;;;19.27;5.35;;;;;;;15.78;84.48;101297.00;5053304;28;20093;-43
2023/07/26 07:19:13;;;;;;;22.08;6.53;;;;;;;15.47;86.00;101299.88;5053693;28;20025;-44
2023/07/26 07:21:39;;;;;;;14.57;5.38;;;;;;;15.54;85.77;101301.44;5053605;28;20462;-44
2023/07/26 07:24:06;;;;;;;22.65;5.35;;;;;;;15.61;85.68;101301.38;5053822;28;20104;-44
2023/07/26 07:26:32;;;;;;;21.17;6.32;;;;;;;15.62;85.43;101303.03;5051138;28;20032;-44
2023/07/26 07:28:58;;;;;;;25.05;6.35;;;;;;;15.64;85.46;101294.72;5055286;23;20059;-45
2023/07/26 07:31:24;;;;;;;17.80;5.85;;;;;;;15.68;85.03;101304.84;5093321;28;20066;-45
2023/07/26 07:33:51;;;;;;;21.80;6.03;;;;;;;15.48;85.62;101305.06;5093689;28;20035;-44
2023/07/26 07:36:20;;;;;;;15.90;5.93;;;;;;;15.43;85.95;101304.91;5093804;28;20031;-43
2023/07/26 07:38:47;;;;;;;19.40;6.68;;;;;;;15.48;85.59;101293.44;5093777;28;20031;-43
2023/07/26 07:41:14;;;;;;;27.42;7.50;;;;;;;15.25;86.56;101294.97;5093261;28;20028;-43
2023/07/26 07:43:40;;;;;;;24.58;6.85;;;;;;;15.35;86.40;101297.13;5082726;28;20020;-45
2023/07/26 07:46:06;;;;;;;19.98;6.05;;;;;;;15.32;86.78;101308.34;5073093;28;20535;-44
2023/07/26 07:48:34;;;;;;;21.23;6.50;;;;;;;15.39;86.42;101294.81;5073456;28;20032;-44
2023/07/26 07:51:00;;;;;;;22.17;7.13;;;;;;;15.24;87.06;101303.28;5072712;28;20478;-43
2023/07/26 07:53:27;;;;;;;24.80;6.13;;;;;;;15.18;87.71;101299.63;5073236;28;20031;-44
2023/07/26 07:55:53;;;;;;;20.20;6.70;;;;;;;15.14;87.81;101297.59;5073239;28;20048;-43
2023/07/26 07:58:20;;;;;;;17.67;6.07;;;;;;;15.13;88.12;101304.03;5073180;28;20025;-43
2023/07/26 08:00:46;;;;;;;27.33;7.25;;;;;;;15.13;88.27;101298.66;5071896;28;20030;-43
2023/07/26 08:03:13;;;;;;;21.83;7.07;;;;;;;15.15;88.21;101304.63;5073374;28;20056;-43
2023/07/26 08:05:39;;;;;;;22.73;6.30;;;;;;;15.17;88.23;101305.25;5072999;28;20024;-44
2023/07/26 08:08:08;;;;;;;22.05;7.05;;;;;;;15.12;88.66;101313.19;5073001;28;20025;-43
2023/07/26 08:10:38;;;;;;;20.42;6.65;;;;;;;15.11;88.59;101306.97;5074696;28;20489;-43
2023/07/26 08:13:05;;;;;;;23.42;6.85;;;;;;;15.14;88.48;101311.88;5092924;28;20031;-43
2023/07/26 08:15:32;;;;;;;19.77;7.30;;;;;;;15.05;88.65;101305.16;5093099;28;20020;-44
2023/07/26 08:17:59;;;;;;;26.27;7.05;;;;;;;15.09;88.64;101302.81;5093003;28;20032;-43
2023/07/26 08:20:25;;;;;;;20.55;7.68;;;;;;;14.93;89.81;101305.06;5092822;28;20028;-43
2023/07/26 08:22:51;;;;;;;30.10;8.02;;;;;;;14.94;89.80;101298.66;5092737;28;20043;-44
2023/07/26 08:25:18;;;;;;;27.92;7.43;;;;;;;14.80;90.38;101302.50;5092787;28;20028;-43
2023/07/26 08:27:44;;;;;;;25.63;7.50;;;;;;;14.92;90.06;101294.50;5092903;28;20109;-43
2023/07/26 08:30:11;;;;;;;29.50;7.93;;;;;;;14.82;90.77;101297.72;5092170;28;20498;-44
2023/07/26 08:32:37;;;;;;;23.63;7.10;;;;;;;14.76;91.19;101296.72;5092943;28;20032;-44
2023/07/26 08:35:03;;;;;;;23.23;7.70;;;;;;;14.78;91.29;101291.16;5092534;28;20020;-44
2023/07/26 08:37:30;;;;;;;25.27;7.95;;;;;;;14.80;91.22;101283.66;5092395;28;20020;-45
2023/07/26 08:39:56;;;;;;;28.63;8.60;;;;;;;14.60;92.16;101285.69;5092153;28;20114;-44
2023/07/26 08:42:22;;;;;;;29.13;7.95;;;;;;;14.66;91.84;101284.84;5092340;28;20031;-43
2023/07/26 08:44:50;;;;;;;24.70;7.93;;;;;;;14.55;92.40;101286.41;5071953;28;20029;-44
2023/07/26 08:47:19;;;;;;;31.02;7.60;;;;;;;14.53;92.67;101275.81;5072025;28;20478;-42
2023/07/26 08:49:46;;;;;;;24.70;8.25;;;;;;;14.56;92.33;101279.13;5071687;28;20056;-44
2023/07/26 08:52:14;;;;;;;24.27;8.30;;;;;;;14.44;92.77;101273.63;5071937;28;20033;-43
2023/07/26 08:54:41;;;;;;;29.85;8.65;;;;;;;14.31;93.56;101276.41;5071822;28;20447;-44
2023/07/26 08:57:08;;;;;;;32.47;8.02;;;;;;;14.39;93.55;101273.44;5071971;28;20024;-44
2023/07/26 08:59:34;;;;;;;22.15;7.65;;;;;;;14.39;93.26;101270.75;5071472;28;20135;-43
2023/07/26 09:02:03;;;;;;;22.38;7.90;;;;;;;14.34;93.07;101281.38;5071717;28;20029;-44
2023/07/26 09:04:33;;;;;;;22.17;7.50;;;;;;;14.27;93.71;101276.03;5071975;28;20024;-44
2023/07/26 09:07:04;;;;;;;26.63;7.60;;;;;;;14.28;93.44;101275.00;5071784;28;20025;-43
2023/07/26 09:09:35;;;;;;;27.55;7.90;;;;;;;14.30;93.58;101266.69;5071119;28;20028;-43
2023/07/26 09:12:02;;;;;;;21.02;7.93;;;;;;;14.28;93.63;101277.69;5071487;28;20020;-44
2023/07/26 09:14:31;;;;;;;25.88;7.32;;;;;;;14.20;94.21;101278.75;5091905;28;20036;-43
2023/07/26 09:16:58;;;;;;;20.83;7.72;;;;;;;14.13;94.59;101275.31;5091577;28;20081;-44
2023/07/26 09:19:33;;;;;;;20.98;7.55;;;;;;;14.13;94.96;101269.09;5091829;28;20031;-44
2023/07/26 09:22:04;;;;;;;28.55;7.60;;;;;;;14.17;94.68;101273.00;5091798;28;20426;-47
2023/07/26 09:24:33;;;;;;;28.05;8.27;;;;;;;14.10;95.36;101266.84;5091924;28;20028;-43
2023/07/26 09:27:08;;;;;;;27.85;8.23;;;;;;;14.09;95.52;101260.63;5091688;28;20055;-43
2023/07/26 09:29:38;;;;;;;34.78;9.07;;;;;;;14.10;95.70;101261.44;5091511;28;20055;-44
2023/07/26 09:32:06;;;;;;;37.53;8.02;;;;;;;14.09;95.47;101266.00;5091384;28;20020;-44
2023/07/26 09:34:32;;;;;;;25.02;8.00;;;;;;;14.05;96.10;101261.28;5091691;28;20020;-43
2023/07/26 09:36:59;;;;;;;28.02;7.93;;;;;;;14.09;95.90;101265.19;5091620;28;20034;-43
2023/07/26 09:39:29;;;;;;;28.23;8.05;;;;;;;14.04;96.05;101262.31;5091346;28;20058;-43
2023/07/26 09:42:13;;;;;;;30.27;9.15;;;;;;;13.93;97.06;101272.75;5091553;28;20063;-43
2023/07/26 09:44:39;;;;;;;22.70;7.82;;;;;;;13.98;96.53;101269.41;5072575;28;20024;-44
2023/07/26 09:47:07;;;;;;;22.45;7.85;;;;;;;13.92;97.00;101265.72;5071203;28;20036;-44
2023/07/26 09:49:33;;;;;;;29.33;7.63;;;;;;;13.99;96.62;101260.28;5071139;28;20074;-44
2023/07/26 09:52:01;;;;;;;25.20;8.00;;;;;;;13.79;97.51;101265.81;5071322;28;20024;-46
2023/07/26 09:54:29;;;;;;;23.58;7.25;;;;;;;13.84;97.52;101260.63;5071239;28;20067;-43
2023/07/26 09:56:56;;;;;;;24.77;7.65;;;;;;;13.87;97.70;101264.72;5071209;28;20021;-43
2023/07/26 09:59:28;;;;;;;24.92;8.05;;;;;;;13.94;97.31;101258.28;5071392;28;20545;-46
2023/07/26 10:01:55;;;;;;;31.45;8.77;;;;;;;13.76;98.10;101265.41;5071022;28;20475;-44
2023/07/26 10:04:36;;;;;;;31.27;9.07;;;;;;;13.83;98.24;101266.22;5085430;28;20108;-44
2023/07/26 10:07:09;;;;;;;28.27;7.30;;;;;;;13.99;97.31;101265.66;5071195;28;20043;-44
2023/07/26 10:09:39;;;;;;;31.58;8.38;;;;;;;13.97;97.01;101257.81;5078097;28;20420;-44
2023/07/26 10:12:09;;;;;;;26.00;8.07;;;;;;;14.02;97.06;101267.13;5091204;28;20044;-44
2023/07/26 10:14:36;;;;;;;32.67;7.40;;;;;;;14.05;96.94;101258.59;5091412;28;20482;-44
2023/07/26 10:17:07;;;;;;;30.23;7.97;;;;;;;14.04;96.67;101259.63;5091177;28;20028;-43
2023/07/26 10:19:34;;;;;;;26.35;8.18;;;;;;;14.10;96.71;101261.44;5090811;28;20056;-47
2023/07/26 10:22:02;;;;;;;32.88;9.02;;;;;;;14.04;97.08;101262.31;5091152;28;20024;-44
2023/07/26 10:24:31;;;;;;;24.08;8.07;;;;;;;14.10;96.73;101256.06;5093927;28;20028;-45
2023/07/26 10:26:58;;;;;;;26.95;8.27;;;;;;;14.10;97.05;101256.06;5094280;28;20043;-44
2023/07/26 10:29:24;;;;;;;27.42;8.43;;;;;;;14.04;97.02;101252.38;5090669;22;20063;-43
2023/07/26 10:32:02;;;;;;;29.35;7.90;;;;;;;14.03;97.22;101255.28;5074440;28;20046;-44
2023/07/26 10:34:28;;;;;;;25.15;8.60;;;;;;;14.08;97.24;101250.91;5074586;28;20036;-45
2023/07/26 10:36:54;;;;;;;30.27;8.25;;;;;;;14.11;97.06;101255.88;5074665;28;20031;-45
2023/07/26 10:39:34;;;;;;;20.05;7.65;;;;;;;14.11;96.60;101253.19;5074299;28;20568;-43
2023/07/26 10:42:02;;;;;;;24.90;7.65;;;;;;;14.03;96.92;101253.44;5074930;28;20031;-44
2023/07/26 10:44:29;;;;;;;30.02;8.43;;;;;;;14.03;96.93;101255.28;5074620;28;20089;-43
2023/07/26 10:47:01;;;;;;;22.73;7.82;;;;;;;14.03;96.99;101258.00;5074340;28;20031;-43
2023/07/26 10:49:30;;;;;;;31.95;8.98;;;;;;;13.96;97.40;101256.19;5074255;28;20016;-44
2023/07/26 10:52:04;;;;;;;24.77;7.93;;;;;;;13.89;97.99;101260.78;5074357;28;20402;-44
2023/07/26 10:54:37;;;;;;;31.50;8.10;;;;;;;13.95;97.55;101259.09;5074322;28;20128;-43
2023/07/26 10:57:21;;;;;;;32.50;7.85;;;;;;;13.91;97.46;101253.31;5074481;28;20024;-44
2023/07/26 11:00:10;;;;;;;22.95;6.43;;;;;;;13.99;96.56;101258.44;5070364;28;20526;-44
2023/07/26 11:02:43;;;;;;;20.80;7.20;;;;;;;13.97;96.89;101263.19;5054246;28;20040;-43
2023/07/26 11:05:11;;;;;;;22.67;7.18;;;;;;;13.94;97.40;101257.44;5065886;28;20165;-44
2023/07/26 11:08:03;;;;;;;19.58;7.45;;;;;;;14.04;97.07;101256.94;5073892;28;20035;-44
2023/07/26 11:10:34;;;;;;;29.52;8.07;;;;;;;14.07;96.34;101261.91;5062686;28;20051;-43
2023/07/26 11:13:08;;;;;;;28.50;8.40;;;;;;;14.02;97.15;101265.25;5074018;28;20031;-44
2023/07/26 11:15:46;;;;;;;26.42;8.50;;;;;;;13.99;97.36;101268.34;5074092;28;20387;-43
2023/07/26 11:18:14;;;;;;;31.60;8.27;;;;;;;14.00;97.61;101264.66;5054412;28;20112;-44
2023/07/26 11:20:45;;;;;;;29.10;7.57;;;;;;;14.03;97.33;101269.56;5053484;28;20037;-44